Data for 12/10/2007

Time Sea-Level Adjusted Pressure Absolute Pressure Temperature Relative Humidity Dew Point   
(mb) (inHg) (mb) (inHg) (C) (F) (%) (C) (F)
00:05 1015 29.97 844 24.92 -5.5 22 71 -10.1 13.9
00:10 1015 29.97 844 24.92 -5.6 21.9 71 -10 13.9
00:15 1015 29.97 844 24.92 -5.5 22.1 70 -10.1 13.7
00:20 1015 29.97 844 24.92 -5.1 22.8 69 -10 14
00:25 1015 29.97 844 24.92 -5 23.1 68 -10 14
00:30 1015 29.97 844 24.92 -4.8 23.3 68 -9.9 14.2
00:35 1015 29.97 844 24.92 -5 22.9 72 -9.3 15.2
00:40 1015 29.97 844 24.92 -5.7 21.8 74 -9.6 14.7
00:45 1015 29.97 844 24.92 -5.7 21.8 72 -9.9 14.1
00:50 1015 29.97 844 24.92 -5.5 22 74 -9.4 15
00:55 1015 29.97 844 24.92 -6 21.1 78 -9.3 15.3
01:00 1015 29.97 844 24.92 -6.1 21.1 76 -9.6 14.6
01:05 1015 29.97 844 24.92 -5.8 21.6 75 -9.5 14.8
01:10 1015 29.97 844 24.92 -5.6 21.8 75 -9.4 15.1
01:15 1015 29.97 844 24.92 -5.6 21.9 74 -9.5 14.9
01:20 1015 29.97 844 24.92 -6 21.3 77 -9.5 15
01:25 1015 29.97 844 24.92 -6.2 20.8 77 -9.6 14.6
01:30 1015 29.97 844 24.92 -6 21.2 77 -9.4 15.1
01:35 1015 29.97 844 24.92 -6 21.2 75 -9.7 14.5
01:40 1015 29.97 844 24.92 -5.8 21.6 75 -9.6 14.8
01:45 1015 29.97 844 24.92 -5.7 21.8 73 -9.8 14.3
01:50 1015 29.97 844 24.92 -5.3 22.4 71 -9.8 14.3
01:55 1015 29.97 844 24.92 -5.3 22.4 72 -9.6 14.8
02:00 1015 29.97 844 24.92 -5.5 22.1 74 -9.5 14.9
02:05 1015 29.97 844 24.92 -5.8 21.6 75 -9.5 14.9
02:10 1015 29.97 844 24.92 -5.8 21.7 76 -9.3 15.2
02:15 1015 29.97 844 24.92 -5.8 21.6 74 -9.6 14.7
02:20 1015 29.97 844 24.92 -5.7 21.8 75 -9.4 15.1
02:25 1015 29.97 844 24.92 -5.5 22.2 74 -9.4 15.1
02:30 1015 29.97 844 24.92 -5.3 22.5 73 -9.4 15
02:35 1015 29.97 844 24.92 -5.2 22.7 73 -9.3 15.2
02:40 1015 29.97 844 24.92 -5.2 22.7 73 -9.3 15.3
02:45 1015 29.97 844 24.92 -5.1 22.7 72 -9.5 14.9
02:50 1015 29.97 844 24.92 -5 23 72 -9.3 15.2
02:55 1015 29.97 844 24.92 -5 23 73 -9.2 15.5
03:00 1015 29.97 844 24.92 -5 23 73 -9.1 15.5
03:05 1015 29.97 844 24.92 -5.2 22.7 74 -9.2 15.5
03:10 1015 29.97 844 24.92 -5.2 22.6 75 -9 15.8
03:15 1015 29.97 844 24.92 -5.3 22.5 74 -9.2 15.5
03:20 1015 29.97 844 24.92 -5.3 22.5 76 -8.9 16
03:25 1015 29.97 844 24.92 -5.2 22.7 75 -9 15.8
03:30 1015 29.97 844 24.92 -5.1 22.9 76 -8.7 16.4
03:35 1015 29.97 844 24.92 -5.1 22.9 75 -8.8 16.1
03:40 1015 29.97 844 24.92 -4.9 23.1 75 -8.7 16.4
03:45 1015 29.97 844 24.92 -4.7 23.6 76 -8.2 17.2
03:50 1015 29.97 844 24.92 -4.6 23.8 78 -7.9 17.9
03:55 1015 29.97 844 24.92 -4.5 23.9 80 -7.4 18.6
04:00 1015 29.97 844 24.92 -4.6 23.8 82 -7.3 18.9
04:05 1015 29.97 844 24.92 -4.7 23.5 83 -7.1 19.2
04:10 1014 29.94 844 24.92 -4.9 23.1 86 -7 19.4
04:15 1014 29.94 844 24.92 -5.1 22.8 86 -7.1 19.3
04:20 1014 29.94 844 24.92 -5.1 22.8 87 -7 19.4
04:25 1014 29.94 844 24.92 -5.2 22.6 88 -6.8 19.7
04:30 1014 29.94 844 24.92 -5.3 22.5 89 -6.8 19.8
04:35 1014 29.94 844 24.92 -5.3 22.5 90 -6.7 20
04:40 1014 29.94 844 24.92 -5.2 22.6 90 -6.7 20
04:45 1014 29.94 844 24.92 -5.3 22.5 90 -6.6 20.1
04:50 1014 29.94 844 24.92 -5.2 22.7 90 -6.5 20.3
04:55 1014 29.94 844 24.92 -5 23 90 -6.5 20.4
05:00 1015 29.97 844 24.92 -5 23 89 -6.5 20.3
05:05 1015 29.97 844 24.92 -4.9 23.1 89 -6.4 20.4
05:10 1015 29.97 844 24.92 -4.9 23.2 89 -6.5 20.3
05:15 1015 29.97 844 24.92 -4.9 23.2 89 -6.4 20.5
05:20 1015 29.97 844 24.92 -5 23 90 -6.4 20.6
05:25 1015 29.97 844 24.92 -5 23 91 -6.3 20.6
05:30 1015 29.97 844 24.92 -5 22.9 91 -6.3 20.7
05:35 1015 29.97 844 24.92 -5.1 22.9 91 -6.3 20.7
05:40 1015 29.97 844 24.92 -5.1 22.9 92 -6.2 20.8
05:45 1015 29.97 844 24.92 -5.1 22.9 92 -6.2 20.9
05:50 1015 29.97 844 24.92 -5 23 92 -6.2 20.9
05:55 1015 29.97 844 24.92 -5 22.9 92 -6.1 21
06:00 1015 29.97 844 24.92 -5.1 22.9 93 -6.1 21
06:05 1015 29.97 844 24.92 -5.1 22.8 93 -6.1 21.1
06:10 1015 29.97 844 24.92 -5.1 22.8 93 -6 21.1
06:15 1015 29.97 844 24.92 -5.1 22.8 94 -6 21.2
06:20 1015 29.97 844 24.92 -5.1 22.8 94 -5.9 21.3
06:25 1015 29.97 844 24.92 -5.1 22.9 94 -5.9 21.4
06:30 1015 29.97 844 24.92 -5 23 93 -5.9 21.3
06:35 1015 29.97 844 24.92 -5.1 22.9 94 -5.9 21.4
06:40 1015 29.97 844 24.92 -5 22.9 94 -5.9 21.4
06:45 1015 29.97 844 24.92 -5 23 94 -5.9 21.4
06:50 1015 29.97 844 24.92 -5 23.1 94 -5.8 21.6
06:55 1015 29.97 844 24.92 -4.9 23.1 94 -5.8 21.5
07:00 1015 29.97 844 24.92 -4.9 23.1 93 -5.8 21.5
07:05 1015 29.97 844 24.92 -4.9 23.2 94 -5.8 21.6
07:10 1015 29.97 844 24.92 -4.9 23.2 93 -5.8 21.5
07:15 1015 29.97 844 24.92 -4.8 23.3 93 -5.8 21.6
07:20 1015 29.97 844 24.92 -4.8 23.4 93 -5.8 21.6
07:25 1015 29.97 844 24.92 -4.8 23.4 93 -5.8 21.6
07:30 1015 29.97 845 24.95 -4.7 23.5 92 -5.8 21.6
07:35 1015 29.97 845 24.95 -4.7 23.5 92 -5.8 21.5
07:40 1015 29.97 845 24.95 -4.8 23.4 92 -5.9 21.4
07:45 1016 30 845 24.95 -4.8 23.3 92 -5.9 21.4
07:50 1016 30 845 24.95 -4.9 23.2 93 -5.9 21.3
07:55 1016 30 845 24.95 -5.1 22.9 93 -6 21.2
08:00 1016 30 845 24.95 -5.2 22.6 94 -6 21.2
08:05 1016 30 845 24.95 -5.2 22.6 94 -6 21.2
08:10 1016 30 845 24.95 -5.3 22.5 95 -6 21.2
08:15 1016 30 845 24.95 -5.4 22.3 95 -6 21.1
08:20 1016 30 845 24.95 -5.3 22.5 94 -6.1 21.1
08:25 1016 30 845 24.95 -5.2 22.6 94 -6 21.2
08:30 1016 30 845 24.95 -5.2 22.7 95 -5.9 21.4
08:35 1016 30 845 24.95 -5.1 22.8 94 -5.9 21.4
08:40 1016 30 845 24.95 -5.1 22.9 93 -6 21.2
08:45 1016 30 845 24.95 -5.1 22.9 94 -5.9 21.3
08:50 1016 30 845 24.95 -5.1 22.9 94 -5.9 21.4
08:55 1016 30 846 24.98 -5.1 22.9 94 -5.9 21.4
09:00 1016 30 846 24.98 -5.1 22.9 94 -5.9 21.4
09:05 1017 30.03 846 24.98 -5 23 94 -5.8 21.6
09:10 1017 30.03 846 24.98 -4.9 23.2 94 -5.7 21.8
09:15 1017 30.03 846 24.98 -4.8 23.3 94 -5.7 21.7
09:20 1017 30.03 846 24.98 -4.8 23.3 93 -5.7 21.7
09:25 1017 30.03 846 24.98 -4.8 23.4 93 -5.8 21.6
09:30 1017 30.03 846 24.98 -4.7 23.5 93 -5.7 21.7
09:35 1017 30.03 846 24.98 -4.6 23.6 92 -5.8 21.5
09:40 1017 30.03 846 24.98 -4.6 23.7 92 -5.8 21.5
09:45 1017 30.03 846 24.98 -4.6 23.8 91 -5.8 21.5
09:50 1017 30.03 846 24.98 -4.5 24 90 -5.9 21.4
09:55 1017 30.03 846 24.98 -4.3 24.2 90 -5.7 21.7
10:00 1017 30.03 847 25.01 -4 24.8 88 -5.8 21.6
10:05 1017 30.03 847 25.01 -3.8 25.2 87 -5.7 21.8
10:10 1017 30.03 847 25.01 -3.9 25 87 -5.7 21.7
10:15 1018 30.06 847 25.01 -3.9 25 86 -5.9 21.5
10:20 1018 30.06 847 25.01 -4 24.7 88 -5.8 21.5
10:25 1018 30.06 847 25.01 -4.2 24.5 86 -6.2 20.8
10:30 1018 30.06 847 25.01 -4.2 24.4 82 -6.8 19.8
10:35 1018 30.06 847 25.01 -4.1 24.7 80 -7.1 19.3
10:40 1018 30.06 847 25.01 -4.3 24.2 77 -7.8 18
10:45 1018 30.06 847 25.01 -4.3 24.3 74 -8.3 17.1
10:50 1018 30.06 847 25.01 -4.3 24.3 71 -8.8 16.2
10:55 1018 30.06 847 25.01 -4.3 24.2 70 -9 15.8
11:00 1018 30.06 847 25.01 -4.1 24.6 68 -9.1 15.6
11:05 1018 30.06 848 25.04 -4.1 24.6 68 -9.1 15.5
11:10 1018 30.06 848 25.04 -3.9 25 68 -9 15.8
11:15 1018 30.06 848 25.04 -3.8 25.2 66 -9.2 15.5
11:20 1018 30.06 848 25.04 -3.9 25.1 67 -9 15.7
11:25 1018 30.06 848 25.04 -3.9 25 67 -9.2 15.4
11:30 1019 30.09 848 25.04 -3.9 25.1 68 -9 15.9
11:35 1019 30.09 848 25.04 -3.7 25.4 65 -9.3 15.3
11:40 1019 30.09 848 25.04 -3.6 25.6 67 -8.9 15.9
11:45 1019 30.09 848 25.04 -3.7 25.4 66 -9.1 15.7
11:50 1019 30.09 848 25.04 -3.6 25.6 66 -9.1 15.6
11:55 1019 30.09 848 25.04 -3.6 25.6 68 -8.7 16.4
12:00 1019 30.09 848 25.04 -4 24.8 71 -8.6 16.5
12:05 1019 30.09 848 25.04 -4.3 24.3 71 -8.7 16.4
12:10 1019 30.09 848 25.04 -4.2 24.5 72 -8.5 16.7
12:15 1019 30.09 848 25.04 -4.4 24.1 74 -8.4 16.9
12:20 1019 30.09 848 25.04 -4.5 24 73 -8.6 16.5
12:25 1019 30.09 848 25.04 -4.5 23.9 74 -8.5 16.8
12:30 1019 30.09 848 25.04 -4.4 24.1 74 -8.3 17
12:35 1019 30.09 848 25.04 -3.8 25.1 70 -8.6 16.5
12:40 1019 30.09 848 25.04 -3.2 26.2 66 -8.8 16.2
12:45 1019 30.09 848 25.04 -3.4 25.9 63 -9.4 15.1
12:50 1019 30.09 848 25.04 -3.2 26.2 61 -9.8 14.4
12:55 1019 30.09 848 25.04 -2.9 26.7 61 -9.5 15
13:00 1019 30.09 848 25.04 -3.1 26.5 60 -9.7 14.5
13:05 1019 30.09 848 25.04 -3.1 26.3 62 -9.5 14.9
13:10 1019 30.09 848 25.04 -3 26.6 59 -9.8 14.3
13:15 1019 30.09 848 25.04 -2.9 26.8 60 -9.6 14.8
13:20 1019 30.09 848 25.04 -3.2 26.2 61 -9.6 14.7
13:25 1019 30.09 848 25.04 -3.5 25.7 62 -9.8 14.4
13:30 1019 30.09 848 25.04 -3.5 25.6 62 -9.8 14.3
13:35 1019 30.09 848 25.04 -3.6 25.6 61 -10.1 13.9
13:40 1019 30.09 848 25.04 -3.4 25.9 62 -9.7 14.6
13:45 1019 30.09 848 25.04 -3.4 25.8 61 -9.9 14.2
13:50 1019 30.09 849 25.07 -3.9 25 63 -10 14
13:55 1019 30.09 849 25.07 -3.8 25.2 63 -9.9 14.2
14:00 1019 30.09 849 25.07 -3.4 25.9 60 -10.1 13.9
14:05 1020 30.12 849 25.07 -3.4 25.9 58 -10.6 12.9
14:10 1020 30.12 849 25.07 -2.7 27.2 54 -10.7 12.7
14:15 1020 30.12 849 25.07 -1.6 29.2 50 -10.6 12.9
14:20 1020 30.12 849 25.07 -1.9 28.6 54 -10.1 13.9
14:25 1020 30.12 849 25.07 -1.9 28.6 51 -10.6 12.8
14:30 1020 30.12 849 25.07 -1.7 29 51 -10.5 13.2
14:35 1020 30.12 849 25.07 -1.4 29.5 52 -10 13.9
14:40 1020 30.12 849 25.07 -2.5 27.5 56 -10.1 13.9
14:45 1020 30.12 849 25.07 -3.6 25.6 60 -10.3 13.4
14:50 1020 30.12 849 25.07 -3.8 25.1 62 -10 14
14:55 1020 30.12 849 25.07 -4.4 24.1 63 -10.4 13.2
15:00 1020 30.12 849 25.07 -5 23 65 -10.6 13
15:05 1020 30.12 849 25.07 -5.3 22.4 66 -10.8 12.5
15:10 1020 30.12 849 25.07 -5.4 22.4 67 -10.6 12.8
15:15 1020 30.12 849 25.07 -5.3 22.4 66 -10.8 12.5
15:20 1020 30.12 849 25.07 -5.5 22.1 65 -11.1 12
15:25 1020 30.12 849 25.07 -5.3 22.4 65 -11 12.2
15:30 1020 30.12 850 25.1 -5.6 21.9 66 -11 12.1
15:35 1020 30.12 850 25.1 -5.3 22.5 65 -10.9 12.4
15:40 1020 30.12 850 25.1 -5.2 22.6 66 -10.6 13
15:45 1021 30.15 850 25.1 -5.4 22.2 67 -10.7 12.8
15:50 1021 30.15 850 25.1 -5.7 21.8 68 -10.7 12.7
15:55 1021 30.15 850 25.1 -5.8 21.6 69 -10.5 13
16:00 1021 30.15 850 25.1 -5.7 21.8 70 -10.4 13.3
16:05 1021 30.15 850 25.1 -5.6 21.9 70 -10.2 13.7
16:10 1021 30.15 850 25.1 -5.5 22.1 70 -10.2 13.6
16:15 1021 30.15 850 25.1 -5.6 21.8 70 -10.2 13.6
16:20 1021 30.15 850 25.1 -5.8 21.5 70 -10.4 13.2
16:25 1021 30.15 850 25.1 -6 21.2 71 -10.5 13.1
16:30 1021 30.15 850 25.1 -6.3 20.7 72 -10.6 12.9
16:35 1021 30.15 850 25.1 -6.4 20.4 71 -10.9 12.3
16:40 1021 30.15 850 25.1 -6.4 20.4 71 -10.8 12.5
16:45 1021 30.15 850 25.1 -6.8 19.8 72 -11.1 12
16:50 1021 30.15 850 25.1 -6.7 19.9 72 -11 12.3
16:55 1021 30.15 850 25.1 -6.9 19.6 74 -10.8 12.6
17:00 1021 30.15 851 25.13 -6.6 20.2 73 -10.7 12.8
17:05 1021 30.15 851 25.13 -6.2 20.9 73 -10.3 13.4
17:10 1022 30.18 851 25.13 -5.9 21.3 71 -10.3 13.4
17:15 1022 30.18 851 25.13 -6.2 20.9 73 -10.2 13.6
17:20 1022 30.18 851 25.13 -6.4 20.4 73 -10.5 13.1
17:25 1022 30.18 851 25.13 -6.4 20.5 73 -10.5 13.2
17:30 1022 30.18 851 25.13 -6.3 20.6 72 -10.5 13
17:35 1022 30.18 851 25.13 -6.3 20.7 72 -10.5 13
17:40 1022 30.18 851 25.13 -6.2 20.9 72 -10.5 13.1
17:45 1022 30.18 851 25.13 -6.1 21 71 -10.6 13
17:50 1022 30.18 851 25.13 -6.1 20.9 72 -10.4 13.2
17:55 1022 30.18 851 25.13 -6.2 20.8 71 -10.6 13
18:00 1022 30.18 851 25.13 -6 21.1 73 -10.1 13.9
18:05 1022 30.18 851 25.13 -6.1 21.1 73 -10.2 13.7
18:10 1022 30.18 851 25.13 -6 21.2 74 -10 14
18:15 1022 30.18 851 25.13 -6.1 21.1 75 -9.9 14.3
18:20 1022 30.18 851 25.13 -6.6 20.1 77 -10 14
18:25 1022 30.18 851 25.13 -6.9 19.5 76 -10.5 13.2
18:30 1022 30.18 851 25.13 -6.9 19.6 76 -10.4 13.3
18:35 1022 30.18 851 25.13 -6.6 20.1 75 -10.3 13.4
18:40 1022 30.18 851 25.13 -6.5 20.3 75 -10.2 13.6
18:45 1022 30.18 851 25.13 -6.4 20.5 75 -10 13.9
18:50 1022 30.18 851 25.13 -6.4 20.5 76 -10 14.1
18:55 1022 30.18 851 25.13 -6.3 20.6 76 -10 14
19:00 1022 30.18 851 25.13 -6.2 20.8 75 -10 13.9
19:05 1022 30.18 851 25.13 -6.1 20.9 76 -9.7 14.5
19:10 1022 30.18 852 25.16 -6.3 20.6 78 -9.5 14.9
19:15 1022 30.18 852 25.16 -6.5 20.3 79 -9.6 14.8
19:20 1022 30.18 852 25.16 -6.7 20 80 -9.6 14.7
19:25 1022 30.18 852 25.16 -6.8 19.7 80 -9.7 14.6
19:30 1022 30.18 852 25.16 -7 19.5 81 -9.7 14.5
19:35 1023 30.21 852 25.16 -7.2 19.1 82 -9.8 14.4
19:40 1023 30.21 852 25.16 -7.3 18.9 83 -9.8 14.4
19:45 1022 30.18 852 25.16 -7.3 18.8 81 -10 14
19:50 1022 30.18 852 25.16 -7.4 18.7 81 -10.2 13.7
19:55 1022 30.18 852 25.16 -7.3 18.8 80 -10.3 13.5
20:00 1023 30.21 852 25.16 -7.2 19 80 -10.2 13.6
20:05 1023 30.21 852 25.16 -7.3 18.8 81 -10.1 13.8
20:10 1023 30.21 852 25.16 -7.4 18.6 81 -10.1 13.8
20:15 1023 30.21 852 25.16 -7.5 18.5 82 -10.1 13.9
20:20 1023 30.21 852 25.16 -7.4 18.6 83 -9.9 14.2
20:25 1023 30.21 852 25.16 -7.5 18.6 81 -10.1 13.8
20:30 1023 30.21 852 25.16 -7.6 18.4 82 -10.2 13.7
20:35 1023 30.21 852 25.16 -8 17.7 85 -10 13.9
20:40 1023 30.21 852 25.16 -8.5 16.6 87 -10.3 13.4
20:45 1023 30.21 852 25.16 -8.7 16.4 86 -10.6 13
20:50 1023 30.21 852 25.16 -8.6 16.5 86 -10.6 13
20:55 1023 30.21 852 25.16 -8.7 16.3 87 -10.5 13.2
21:00 1023 30.21 852 25.16 -8.6 16.5 87 -10.4 13.3
21:05 1023 30.21 852 25.16 -8.5 16.6 86 -10.5 13.1
21:10 1023 30.21 852 25.16 -8.8 16.1 87 -10.6 12.9
21:15 1023 30.21 852 25.16 -9.3 15.3 88 -10.8 12.5
21:20 1023 30.21 852 25.16 -9.5 14.9 89 -11 12.3
21:25 1023 30.21 852 25.16 -9.6 14.6 90 -10.9 12.3
21:30 1023 30.21 852 25.16 -9.9 14.3 90 -11.2 11.9
21:35 1023 30.21 852 25.16 -10 14 88 -11.6 11.1
21:40 1023 30.21 852 25.16 -10.1 13.8 87 -11.9 10.6
21:45 1023 30.21 852 25.16 -10.1 13.8 87 -11.9 10.5
21:50 1023 30.21 852 25.16 -10.1 13.8 87 -11.8 10.7
21:55 1023 30.21 852 25.16 -10.1 13.9 87 -11.9 10.7
22:00 1023 30.21 852 25.16 -10.1 13.8 86 -12 10.4
22:05 1023 30.21 852 25.16 -10.2 13.6 87 -12 10.3
22:10 1023 30.21 852 25.16 -10.3 13.5 87 -12.1 10.2
22:15 1023 30.21 852 25.16 -10.5 13.1 88 -12.1 10.2
22:20 1023 30.21 852 25.16 -10.8 12.5 87 -12.6 9.3
22:25 1023 30.21 852 25.16 -10.9 12.3 86 -12.9 8.8
22:30 1023 30.21 852 25.16 -11.2 11.9 87 -12.9 8.8
22:35 1023 30.21 852 25.16 -11.4 11.5 86 -13.3 8.1
22:40 1023 30.21 852 25.16 -11.3 11.6 85 -13.3 8
22:45 1023 30.21 852 25.16 -11.3 11.7 87 -13.1 8.5
22:50 1023 30.21 852 25.16 -11 12.2 86 -12.9 8.7
22:55 1023 30.21 852 25.16 -10.8 12.5 86 -12.7 9.2
23:00 1023 30.21 852 25.16 -10.7 12.8 86 -12.6 9.4
23:05 1023 30.21 852 25.16 -10.6 12.9 85 -12.6 9.4
23:10 1023 30.21 852 25.16 -10.5 13 85 -12.6 9.4
23:15 1023 30.21 852 25.16 -10.4 13.2 85 -12.6 9.4
23:20 1023 30.21 852 25.16 -10.4 13.2 85 -12.5 9.5
23:25 1023 30.21 852 25.16 -10.6 12.9 85 -12.6 9.3
23:30 1023 30.21 852 25.16 -10.9 12.4 85 -12.9 8.8
23:35 1023 30.21 852 25.16 -11.1 12.1 85 -13.1 8.4
23:40 1023 30.21 853 25.19 -11.4 11.5 85 -13.5 7.8
23:45 1023 30.21 853 25.19 -11.7 11 85 -13.7 7.4
23:50 1023 30.21 853 25.19 -11.8 10.7 86 -13.7 7.3
23:55 1023 30.21 853 25.19 -11.7 11 86 -13.5 7.7
24:00 1023 30.21 853 25.19 -11.5 11.4 84 -13.7 7.3